Time;durP1;ratioP1;P1;durP2;ratioP2;P2;SDS_P1;SDS_P2;PMS_P1;PMS_P2;Temp;Humidity;BMP_temperature;BMP_pressure;BME280_temperature;BME280_humidity;BME280_pressure;Samples;Min_cycle;Max_cycle;Signal;HPM_P1;HPM_P2
2023/05/16 00:01:49;;;;;;;29.85;13.20;;;;;;;11.84;68.72;97915.34;5035067;28;20120;-71
2023/05/16 00:04:16;;;;;;;27.88;13.15;;;;;;;11.84;68.94;97916.19;5049343;28;20040;-72
2023/05/16 00:06:41;;;;;;;12.05;9.25;;;;;;;11.87;68.83;97918.28;5047673;28;20064;-72
2023/05/16 00:09:07;;;;;;;11.43;9.13;;;;;;;11.87;68.96;97920.22;5035520;28;20537;-73
2023/05/16 00:11:32;;;;;;;11.07;8.48;;;;;;;11.87;69.54;97918.28;5050884;28;20025;-72
2023/05/16 00:13:58;;;;;;;10.55;8.48;;;;;;;11.88;68.87;97916.34;5033849;28;20466;-72
2023/05/16 00:16:24;;;;;;;12.13;8.90;;;;;;;11.88;69.13;97917.16;5044009;28;20033;-72
2023/05/16 00:18:52;;;;;;;16.85;9.45;;;;;;;11.87;69.04;97910.06;5046625;28;20091;-71
2023/05/16 00:21:17;;;;;;;26.40;12.18;;;;;;;11.88;69.17;97914.41;5039903;28;20058;-72
2023/05/16 00:23:43;;;;;;;18.25;10.48;;;;;;;11.93;69.71;97915.41;5051835;28;20096;-72
2023/05/16 00:26:08;;;;;;;19.98;10.32;;;;;;;11.94;69.27;97914.28;5039958;28;20026;-72
2023/05/16 00:28:34;;;;;;;21.63;11.75;;;;;;;11.96;69.63;97917.53;5049802;28;20036;-72
2023/05/16 00:31:00;;;;;;;18.50;10.35;;;;;;;11.97;69.44;97911.69;5036928;28;20465;-72
2023/05/16 00:33:25;;;;;;;16.70;9.75;;;;;;;11.97;69.56;97910.91;5048858;28;20037;-72
2023/05/16 00:35:52;;;;;;;15.50;9.50;;;;;;;11.98;69.31;97912.50;5038836;28;20029;-71
2023/05/16 00:38:18;;;;;;;18.63;10.07;;;;;;;11.98;69.68;97916.06;5035487;28;20489;-71
2023/05/16 00:40:43;;;;;;;15.13;9.38;;;;;;;11.99;69.94;97914.13;5036213;28;20043;-71
2023/05/16 00:43:08;;;;;;;14.60;9.07;;;;;;;11.97;70.01;97921.88;5033568;28;20026;-70
2023/05/16 00:45:34;;;;;;;9.23;6.60;;;;;;;11.94;69.50;97912.31;5038845;28;20032;-72
2023/05/16 00:47:59;;;;;;;12.05;7.40;;;;;;;11.94;70.41;97923.31;5039113;28;20029;-72
2023/05/16 00:50:25;;;;;;;16.50;8.18;;;;;;;11.91;69.83;97921.19;5033116;28;20064;-71
2023/05/16 00:52:50;;;;;;;9.13;6.13;;;;;;;11.90;69.69;97908.59;5039673;28;20091;-72
2023/05/16 00:55:16;;;;;;;7.28;5.60;;;;;;;11.90;70.56;97906.66;5051172;28;20494;-71
2023/05/16 00:57:41;;;;;;;8.02;5.90;;;;;;;11.90;70.14;97909.41;5036651;28;20500;-72
2023/05/16 01:00:10;;;;;;;7.90;5.80;;;;;;;11.90;69.87;97906.66;5041790;28;20043;-71
2023/05/16 01:02:36;;;;;;;8.93;5.65;;;;;;;11.92;70.42;97911.84;5052769;28;20041;-72
2023/05/16 01:05:07;;;;;;;11.73;6.82;;;;;;;11.91;69.79;97911.03;5049861;28;20082;-72
2023/05/16 01:07:33;;;;;;;14.25;7.82;;;;;;;11.91;70.03;97916.53;5034866;28;20032;-72
2023/05/16 01:09:59;;;;;;;12.02;7.13;;;;;;;11.93;70.22;97907.97;5033885;28;20025;-72
2023/05/16 01:12:31;;;;;;;12.43;6.97;;;;;;;11.93;70.18;97913.44;5033826;28;20056;-74
2023/05/16 01:15:10;;;;;;;11.60;7.43;;;;;;;11.93;70.44;97901.66;5032895;28;20037;-74
2023/05/16 01:17:53;;;;;;;11.85;7.63;;;;;;;11.91;69.72;97905.53;5047160;28;20108;-74
2023/05/16 01:20:29;;;;;;;9.20;7.40;;;;;;;11.93;70.24;97901.66;5033929;28;20025;-75
2023/05/16 01:23:06;;;;;;;10.75;7.40;;;;;;;11.97;70.21;97899.91;5041665;28;20032;-74
2023/05/16 01:25:38;;;;;;;12.02;7.35;;;;;;;11.97;70.21;97899.91;5051034;28;20025;-75
2023/05/16 01:28:04;;;;;;;11.02;7.35;;;;;;;11.99;70.46;97897.66;5042107;28;20033;-74
2023/05/16 01:30:34;;;;;;;10.45;6.82;;;;;;;11.98;70.26;97899.56;5039302;28;20499;-74
2023/05/16 01:33:00;;;;;;;14.55;8.00;;;;;;;11.98;69.74;97899.56;5051570;28;20029;-75
2023/05/16 01:35:26;;;;;;;11.13;7.18;;;;;;;11.98;70.06;97896.81;5047744;28;20112;-75
2023/05/16 01:38:03;;;;;;;11.35;7.47;;;;;;;11.98;69.83;97901.53;5045457;28;20025;-74
2023/05/16 01:40:34;;;;;;;10.23;7.10;;;;;;;11.99;69.80;97898.47;5036253;28;20452;-75
2023/05/16 01:43:07;;;;;;;8.15;6.28;;;;;;;11.98;69.71;97901.53;5032204;28;20504;-75
2023/05/16 01:45:34;;;;;;;10.57;6.68;;;;;;;11.95;70.00;97899.41;5035814;28;20029;-74
2023/05/16 01:48:07;;;;;;;12.23;8.25;;;;;;;11.94;69.34;97915.06;5050753;28;20037;-74
2023/05/16 01:50:36;;;;;;;14.43;9.00;;;;;;;11.91;69.67;97908.28;5047732;28;20029;-74
2023/05/16 01:53:11;;;;;;;11.50;7.88;;;;;;;11.88;70.13;97914.41;5031881;28;20519;-75
2023/05/16 01:55:50;;;;;;;10.27;7.47;;;;;;;11.80;69.88;97919.91;5050348;28;20025;-75
2023/05/16 01:58:20;;;;;;;10.02;6.78;;;;;;;11.76;69.55;97919.69;5031952;28;20033;-75
2023/05/16 02:00:45;;;;;;;10.27;7.20;;;;;;;11.74;69.83;97920.03;5036517;28;20385;-75
2023/05/16 02:03:11;;;;;;;10.40;6.65;;;;;;;11.72;69.73;97921.47;5052084;28;20032;-74
2023/05/16 02:05:36;;;;;;;9.05;6.85;;;;;;;11.69;69.54;97920.16;5051183;28;20021;-74
2023/05/16 02:08:03;;;;;;;9.45;6.43;;;;;;;11.67;69.32;97927.09;5051012;28;20125;-74
2023/05/16 02:10:28;;;;;;;7.57;6.10;;;;;;;11.65;69.70;97923.84;5050409;28;20033;-75
2023/05/16 02:12:53;;;;;;;7.00;5.95;;;;;;;11.61;69.49;97920.94;5041364;28;20053;-74
2023/05/16 02:15:20;;;;;;;8.27;6.05;;;;;;;11.59;69.24;97918.53;5032058;28;20067;-74
2023/05/16 02:17:46;;;;;;;8.43;5.82;;;;;;;11.56;69.92;97916.41;5044047;28;20117;-74
2023/05/16 02:20:11;;;;;;;9.85;6.43;;;;;;;11.51;69.59;97919.28;5031735;28;20034;-75
2023/05/16 02:22:41;;;;;;;8.30;5.78;;;;;;;11.47;69.98;97926.53;5047735;28;20036;-74
2023/05/16 02:25:07;;;;;;;11.20;6.72;;;;;;;11.42;69.48;97929.41;5050128;28;20512;-74
2023/05/16 02:27:32;;;;;;;8.82;6.05;;;;;;;11.37;69.93;97930.34;5032732;28;20021;-74
2023/05/16 02:29:58;;;;;;;8.43;5.70;;;;;;;11.34;69.33;97927.41;5034067;28;20408;-74
2023/05/16 02:32:23;;;;;;;9.15;6.30;;;;;;;11.30;69.42;97919.81;5035757;28;20084;-74
2023/05/16 02:34:48;;;;;;;9.95;6.70;;;;;;;11.26;70.26;97918.81;5035966;28;20026;-74
2023/05/16 02:37:14;;;;;;;9.18;5.95;;;;;;;11.24;70.22;97920.25;5050448;28;20082;-74
2023/05/16 02:39:39;;;;;;;9.10;6.50;;;;;;;11.19;69.92;97925.88;5055402;28;20404;-74
2023/05/16 02:42:06;;;;;;;9.88;6.55;;;;;;;11.15;69.71;97939.44;5038353;28;20477;-74
2023/05/16 02:44:31;;;;;;;8.93;6.05;;;;;;;11.10;70.07;97932.13;5035696;28;20033;-74
2023/05/16 02:46:56;;;;;;;9.93;6.15;;;;;;;11.09;70.37;97935.97;5047912;28;20061;-74
2023/05/16 02:49:22;;;;;;;11.38;6.47;;;;;;;11.08;70.03;97933.56;5048029;28;20029;-74
2023/05/16 02:51:47;;;;;;;9.18;6.15;;;;;;;11.06;70.16;97925.63;5040646;28;20028;-74
2023/05/16 02:54:12;;;;;;;8.18;6.55;;;;;;;11.06;70.05;97927.56;5046031;28;20120;-74
2023/05/16 02:56:38;;;;;;;8.98;6.60;;;;;;;11.04;70.12;97922.38;5043592;28;20025;-74
2023/05/16 02:59:03;;;;;;;9.93;6.30;;;;;;;11.04;70.46;97929.81;5055325;28;20029;-74
2023/05/16 03:01:29;;;;;;;9.18;6.15;;;;;;;11.00;70.28;97938.66;5037946;28;20033;-74
2023/05/16 03:03:54;;;;;;;9.27;6.45;;;;;;;10.97;70.75;97933.81;5042608;28;20107;-74
2023/05/16 03:06:20;;;;;;;9.55;7.20;;;;;;;10.95;70.69;97933.31;5054484;28;20449;-74
2023/05/16 03:08:46;;;;;;;10.07;6.75;;;;;;;10.95;70.97;97933.31;5053463;28;20039;-74
2023/05/16 03:11:11;;;;;;;9.18;6.90;;;;;;;10.94;70.55;97944.59;5054778;28;20037;-74
2023/05/16 03:13:36;;;;;;;9.65;6.63;;;;;;;10.92;70.68;97944.09;5054280;28;20033;-75
2023/05/16 03:16:02;;;;;;;10.32;6.40;;;;;;;10.91;70.95;97951.50;5049845;28;20029;-74
2023/05/16 03:18:27;;;;;;;8.23;6.57;;;;;;;10.92;71.13;97952.34;5051247;28;20103;-74
2023/05/16 03:20:53;;;;;;;11.32;7.50;;;;;;;10.91;71.51;97957.00;5051502;28;20123;-74
2023/05/16 03:23:20;;;;;;;10.05;7.10;;;;;;;10.90;71.09;97962.81;5040082;28;20029;-74
2023/05/16 03:25:45;;;;;;;9.40;6.45;;;;;;;10.92;71.20;97960.56;5038709;28;20036;-74
2023/05/16 03:28:11;;;;;;;9.02;6.57;;;;;;;10.92;70.59;97960.56;5042783;28;20037;-74
2023/05/16 03:30:36;;;;;;;9.45;6.35;;;;;;;10.91;71.68;97954.25;5035084;28;20112;-74
2023/05/16 03:33:03;;;;;;;10.10;7.15;;;;;;;10.93;70.53;97962.97;5034599;28;20033;-74
2023/05/16 03:35:32;;;;;;;10.40;6.82;;;;;;;10.94;71.42;97961.06;5050919;28;20389;-74
2023/05/16 03:37:57;;;;;;;9.13;7.10;;;;;;;10.95;70.80;97952.50;5054360;28;20478;-74
2023/05/16 03:40:23;;;;;;;8.80;7.10;;;;;;;10.97;71.04;97955.75;5053623;28;20037;-74
2023/05/16 03:42:48;;;;;;;9.65;6.85;;;;;;;10.98;71.02;97962.88;5053196;28;20025;-74
2023/05/16 03:45:13;;;;;;;9.38;7.22;;;;;;;10.98;71.21;97965.63;5053590;28;20119;-74
2023/05/16 03:47:39;;;;;;;10.05;7.22;;;;;;;11.00;70.88;97957.88;5037333;28;20038;-74
2023/05/16 03:50:05;;;;;;;11.70;7.43;;;;;;;11.01;71.22;97965.00;5050332;28;20057;-74
2023/05/16 03:52:30;;;;;;;10.82;7.68;;;;;;;11.05;70.82;97973.41;5053744;28;20120;-74
2023/05/16 03:54:56;;;;;;;10.43;7.13;;;;;;;11.05;71.34;97967.91;5054353;28;20104;-75
2023/05/16 03:57:21;;;;;;;13.00;8.13;;;;;;;11.07;71.87;97970.38;5039629;28;20438;-74
2023/05/16 03:59:47;;;;;;;12.88;8.45;;;;;;;11.06;71.40;97974.22;5043342;28;20036;-74
2023/05/16 04:02:12;;;;;;;12.13;8.40;;;;;;;11.07;71.38;97970.38;5053210;28;20041;-74
2023/05/16 04:04:38;;;;;;;11.63;8.05;;;;;;;11.08;71.30;97969.25;5053915;28;20098;-75
2023/05/16 04:07:03;;;;;;;11.38;8.63;;;;;;;11.12;71.27;97962.00;5041787;28;20030;-74
2023/05/16 04:09:29;;;;;;;12.55;8.73;;;;;;;11.13;71.27;97969.91;5033778;28;20030;-74
2023/05/16 04:11:55;;;;;;;10.82;8.05;;;;;;;11.15;71.77;97972.38;5035091;28;20032;-75
2023/05/16 04:14:22;;;;;;;13.90;8.13;;;;;;;11.16;71.38;97969.28;5051903;28;20032;-74
2023/05/16 04:16:47;;;;;;;14.48;8.18;;;;;;;11.17;71.74;97981.09;5052070;28;20066;-73
2023/05/16 04:19:13;;;;;;;11.95;8.10;;;;;;;11.19;71.04;97987.09;5037792;28;20025;-74
2023/05/16 04:21:39;;;;;;;8.43;6.72;;;;;;;11.22;71.83;97977.41;5036697;28;20560;-73
2023/05/16 04:24:05;;;;;;;10.93;7.07;;;;;;;11.24;72.06;97989.69;5053377;28;20086;-74
2023/05/16 04:26:30;;;;;;;9.75;6.88;;;;;;;11.28;71.25;97993.44;5045283;28;20056;-73
2023/05/16 04:28:57;;;;;;;10.98;6.60;;;;;;;11.34;71.80;97985.91;5035078;28;20029;-73
2023/05/16 04:31:24;;;;;;;11.23;6.45;;;;;;;11.39;71.80;97990.44;5044722;28;20025;-73
2023/05/16 04:33:49;;;;;;;9.48;6.70;;;;;;;11.43;71.29;97989.47;5040612;28;20056;-73
2023/05/16 04:36:15;;;;;;;7.95;6.32;;;;;;;11.47;71.66;97993.22;5047321;28;20083;-73
2023/05/16 04:38:40;;;;;;;9.02;5.97;;;;;;;11.52;71.61;97997.78;5047128;28;20051;-73
2023/05/16 04:41:06;;;;;;;7.05;6.07;;;;;;;11.58;71.38;98006.69;5050800;28;20044;-73
2023/05/16 04:43:31;;;;;;;8.70;6.43;;;;;;;11.64;71.57;98004.63;5053266;28;20040;-73
2023/05/16 04:45:57;;;;;;;7.15;5.82;;;;;;;11.70;71.36;98011.63;5050896;28;20610;-73
2023/05/16 04:48:23;;;;;;;8.85;6.43;;;;;;;11.75;72.24;98006.81;5035792;28;20031;-73
2023/05/16 04:50:48;;;;;;;9.07;7.00;;;;;;;11.80;71.86;98013.31;5049826;28;20033;-73
2023/05/16 04:53:14;;;;;;;7.78;6.32;;;;;;;11.85;72.18;98016.72;5051504;28;20041;-73
2023/05/16 04:55:39;;;;;;;8.82;6.43;;;;;;;11.91;71.55;98009.97;5050440;28;20078;-73
2023/05/16 04:58:05;;;;;;;9.63;6.85;;;;;;;11.97;72.01;98012.56;5049761;28;20021;-73
2023/05/16 05:00:31;;;;;;;8.98;6.28;;;;;;;12.01;71.94;98019.88;5050850;28;20033;-73
2023/05/16 05:02:56;;;;;;;10.18;6.47;;;;;;;12.09;71.88;98017.50;5044026;28;20022;-73
2023/05/16 05:05:22;;;;;;;9.57;7.18;;;;;;;12.15;71.29;98028.03;5039373;28;20120;-74
2023/05/16 05:07:47;;;;;;;9.25;6.57;;;;;;;12.21;71.48;98024.00;5034198;28;20030;-73
2023/05/16 05:10:13;;;;;;;8.57;6.10;;;;;;;12.28;71.75;98029.03;5047573;28;20547;-73
2023/05/16 05:12:38;;;;;;;9.52;6.75;;;;;;;12.34;71.28;98033.28;5035992;28;20030;-73
2023/05/16 05:15:05;;;;;;;10.70;6.00;;;;;;;12.40;71.37;98031.22;5032741;28;20037;-73
2023/05/16 05:17:30;;;;;;;8.35;6.47;;;;;;;12.46;71.51;98021.66;5040437;28;20021;-73
2023/05/16 05:19:56;;;;;;;8.27;6.10;;;;;;;12.54;71.03;98027.50;5049785;28;20058;-72
2023/05/16 05:22:21;;;;;;;8.55;6.50;;;;;;;12.59;71.01;98035.59;5053657;28;20033;-72
2023/05/16 05:24:46;;;;;;;7.93;6.07;;;;;;;12.65;70.97;98023.31;5057513;28;20016;-75
2023/05/16 05:27:12;;;;;;;7.60;6.28;;;;;;;12.72;71.14;98028.34;5053415;28;20024;-74
2023/05/16 05:29:37;;;;;;;8.88;5.90;;;;;;;12.76;70.80;98027.41;5052635;28;20032;-73
2023/05/16 05:32:03;;;;;;;7.25;5.57;;;;;;;12.81;71.02;98023.69;5050563;28;20510;-73
2023/05/16 05:34:29;;;;;;;7.90;5.70;;;;;;;12.88;70.93;98017.69;5047234;28;20021;-74
2023/05/16 05:36:55;;;;;;;8.00;5.68;;;;;;;12.94;70.85;98021.91;5042928;28;20075;-72
2023/05/16 05:39:21;;;;;;;7.35;5.65;;;;;;;13.01;70.88;98022.25;5046851;28;20040;-71
2023/05/16 05:41:46;;;;;;;7.18;5.22;;;;;;;13.08;70.41;98021.75;5047917;28;20041;-71
2023/05/16 05:44:11;;;;;;;6.95;5.60;;;;;;;13.16;70.65;98025.66;5036954;28;20146;-71
2023/05/16 05:46:37;;;;;;;6.78;5.20;;;;;;;13.23;70.65;98020.47;5049973;28;20032;-70
2023/05/16 05:49:02;;;;;;;9.13;5.50;;;;;;;13.31;70.38;98022.38;5051272;28;20032;-73
2023/05/16 05:51:28;;;;;;;7.47;4.95;;;;;;;13.40;70.24;98017.69;5049313;28;20025;-74
2023/05/16 05:53:54;;;;;;;6.35;5.00;;;;;;;13.47;70.33;98017.22;5053457;28;20060;-72
2023/05/16 05:56:20;;;;;;;5.78;4.80;;;;;;;13.56;69.97;98022.72;5048873;28;20442;-73
2023/05/16 05:58:45;;;;;;;5.80;5.20;;;;;;;13.62;69.88;98021.44;5050195;28;20021;-73
2023/05/16 06:01:11;;;;;;;8.57;5.20;;;;;;;13.69;69.45;98027.22;5050216;28;20068;-72
2023/05/16 06:03:36;;;;;;;6.63;5.13;;;;;;;13.76;69.31;98032.25;5049216;28;20025;-72
2023/05/16 06:06:03;;;;;;;6.13;4.78;;;;;;;13.82;69.04;98041.97;5051578;28;20097;-73
2023/05/16 06:08:28;;;;;;;7.40;5.85;;;;;;;13.89;68.89;98037.88;5051744;28;20040;-72
2023/05/16 06:10:54;;;;;;;147.20;52.25;;;;;;;13.93;68.54;98034.16;5051987;28;20385;-73
2023/05/16 06:13:20;;;;;;;22.08;11.23;;;;;;;14.01;68.63;98037.22;5051107;28;20115;-74
2023/05/16 06:15:52;;;;;;;9.10;6.13;;;;;;;14.06;68.34;98035.06;5050209;28;20025;-74
2023/05/16 06:18:17;;;;;;;7.70;5.20;;;;;;;14.11;67.91;98032.16;5051896;28;20063;-72
2023/05/16 06:20:43;;;;;;;6.85;4.40;;;;;;;14.18;67.92;98036.34;5050275;28;20029;-73
2023/05/16 06:23:08;;;;;;;6.13;4.80;;;;;;;14.22;67.84;98043.59;5049638;28;20037;-72
2023/05/16 06:25:33;;;;;;;5.60;4.70;;;;;;;14.30;67.44;98041.94;5050515;28;20112;-73
2023/05/16 06:27:59;;;;;;;7.47;6.22;;;;;;;14.33;67.25;98040.50;5051686;28;20028;-73
2023/05/16 06:30:24;;;;;;;5.25;4.75;;;;;;;14.35;67.11;98038.22;5051995;28;20104;-73
2023/05/16 06:32:50;;;;;;;5.80;4.60;;;;;;;14.37;66.72;98044.22;5051762;28;20024;-71
2023/05/16 06:35:15;;;;;;;5.47;4.25;;;;;;;14.40;66.46;98046.31;5047790;28;20677;-72
2023/05/16 06:37:41;;;;;;;6.40;4.85;;;;;;;14.41;66.55;98045.97;5050613;28;20037;-73
2023/05/16 06:40:06;;;;;;;5.80;4.93;;;;;;;14.46;65.95;98044.16;5052771;28;20048;-72
2023/05/16 06:42:32;;;;;;;5.28;4.78;;;;;;;14.49;66.39;98047.03;5048086;28;20037;-72
2023/05/16 06:44:57;;;;;;;5.47;4.50;;;;;;;14.52;66.07;98038.09;5048713;28;20108;-72
2023/05/16 06:47:23;;;;;;;6.78;5.10;;;;;;;14.56;66.12;98039.06;5049952;28;20033;-72
2023/05/16 06:49:49;;;;;;;6.68;4.88;;;;;;;14.63;65.52;98034.97;5051592;28;20029;-71
2023/05/16 06:52:14;;;;;;;5.15;4.57;;;;;;;14.66;65.43;98035.13;5049993;28;20035;-71
2023/05/16 06:54:40;;;;;;;5.65;5.05;;;;;;;14.71;65.16;98043.22;5051832;28;20021;-71
2023/05/16 06:57:07;;;;;;;5.85;5.13;;;;;;;14.76;65.54;98050.53;5051247;28;20043;-71
2023/05/16 06:59:34;;;;;;;6.50;5.78;;;;;;;14.81;65.52;98042.06;5050190;28;20052;-72
2023/05/16 07:02:00;;;;;;;6.13;4.72;;;;;;;14.86;65.28;98047.38;5046914;28;20037;-72
2023/05/16 07:04:25;;;;;;;6.90;5.05;;;;;;;14.94;65.16;98042.94;5043673;28;20025;-72
2023/05/16 07:06:51;;;;;;;6.05;4.85;;;;;;;14.97;64.82;98028.47;5049799;28;20043;-72
2023/05/16 07:09:17;;;;;;;6.13;5.38;;;;;;;15.05;65.27;98037.03;5049429;28;20029;-73
2023/05/16 07:11:42;;;;;;;8.30;5.30;;;;;;;15.12;64.63;98032.56;5050190;28;20032;-73
2023/05/16 07:14:08;;;;;;;5.55;4.90;;;;;;;15.21;64.94;98034.47;5050822;28;20028;-72
2023/05/16 07:16:34;;;;;;;6.18;5.07;;;;;;;15.29;64.47;98044.59;5052893;28;20477;-71
2023/05/16 07:18:59;;;;;;;7.68;5.95;;;;;;;15.33;64.60;98042.78;5056914;28;20032;-72
2023/05/16 07:21:25;;;;;;;7.28;5.40;;;;;;;15.38;64.65;98048.09;5052874;28;20028;-72
2023/05/16 07:23:51;;;;;;;6.03;4.93;;;;;;;15.43;64.60;98042.38;5054989;28;20094;-73
2023/05/16 07:26:16;;;;;;;6.93;5.55;;;;;;;15.52;64.46;98049.78;5053990;28;20079;-71
2023/05/16 07:28:42;;;;;;;7.05;5.45;;;;;;;15.57;64.04;98055.91;5053281;28;20469;-74
2023/05/16 07:31:07;;;;;;;8.38;5.10;;;;;;;15.63;64.45;98062.84;5054266;28;20036;-73
2023/05/16 07:33:33;;;;;;;5.22;4.70;;;;;;;15.70;64.33;98067.00;5058178;28;20045;-72
2023/05/16 07:35:58;;;;;;;5.95;5.30;;;;;;;15.77;63.80;98068.06;5054041;28;20021;-73
2023/05/16 07:38:23;;;;;;;5.68;5.07;;;;;;;15.83;63.62;98068.69;5053671;28;20627;-72
2023/05/16 07:40:49;;;;;;;6.38;5.20;;;;;;;15.88;63.30;98076.78;5048803;28;20485;-72
2023/05/16 07:43:14;;;;;;;5.75;4.95;;;;;;;15.89;63.13;98083.94;5051541;28;20067;-72
2023/05/16 07:45:40;;;;;;;5.47;4.97;;;;;;;15.91;63.15;98087.16;5053247;28;20086;-71
2023/05/16 07:48:05;;;;;;;6.35;5.47;;;;;;;15.96;63.10;98086.16;5051295;28;20029;-72
2023/05/16 07:50:31;;;;;;;5.88;5.28;;;;;;;16.03;62.81;98093.88;5052914;28;20032;-71
2023/05/16 07:52:56;;;;;;;6.50;5.45;;;;;;;16.08;62.55;98099.19;5049852;28;20477;-72
2023/05/16 07:55:22;;;;;;;5.80;5.20;;;;;;;16.14;62.76;98088.72;5041424;28;20032;-72
2023/05/16 07:57:48;;;;;;;8.25;5.38;;;;;;;16.21;62.63;98098.09;5051110;28;20060;-73
2023/05/16 08:00:14;;;;;;;5.80;5.20;;;;;;;16.30;62.95;98102.72;5047353;28;20026;-73
2023/05/16 08:02:40;;;;;;;5.93;5.30;;;;;;;16.34;62.53;98107.22;5033845;28;20032;-73
2023/05/16 08:05:06;;;;;;;10.90;5.95;;;;;;;16.44;62.60;98108.72;5035118;28;20025;-74
2023/05/16 08:07:32;;;;;;;7.10;5.47;;;;;;;16.50;62.45;98109.31;5049981;28;20021;-76
2023/05/16 08:09:57;;;;;;;6.95;6.32;;;;;;;16.58;62.30;98108.38;5044398;28;20035;-73
2023/05/16 08:12:23;;;;;;;6.22;5.63;;;;;;;16.63;62.39;98102.63;5054206;28;20017;-72
2023/05/16 08:14:49;;;;;;;7.22;5.72;;;;;;;16.69;62.00;98110.69;5049859;28;20025;-75
2023/05/16 08:17:14;;;;;;;6.13;5.10;;;;;;;16.73;61.80;98111.63;5036754;28;20024;-75
2023/05/16 08:19:40;;;;;;;6.72;5.22;;;;;;;16.78;61.70;98111.41;5034518;28;20100;-76
2023/05/16 08:22:06;;;;;;;5.68;4.95;;;;;;;16.83;61.77;98105.63;5042842;28;20025;-75
2023/05/16 08:24:32;;;;;;;5.95;5.03;;;;;;;16.86;61.50;98116.03;5053115;28;20029;-74
2023/05/16 08:26:57;;;;;;;7.10;4.82;;;;;;;16.90;61.57;98119.72;5052866;28;20033;-75
2023/05/16 08:29:22;;;;;;;7.20;5.18;;;;;;;16.97;61.33;98121.91;5054451;28;20025;-74
2023/05/16 08:31:48;;;;;;;5.57;4.90;;;;;;;17.03;61.29;98128.03;5053169;28;20120;-75
2023/05/16 08:34:13;;;;;;;6.40;5.20;;;;;;;17.09;61.44;98123.88;5054294;28;20055;-76
2023/05/16 08:36:39;;;;;;;6.32;4.88;;;;;;;17.19;61.19;98122.56;5053754;28;20021;-76
2023/05/16 08:39:04;;;;;;;7.70;5.45;;;;;;;17.29;61.21;98113.00;5054045;28;20053;-76
2023/05/16 08:41:30;;;;;;;5.90;5.20;;;;;;;17.34;61.06;98116.31;5054133;28;20086;-75
2023/05/16 08:43:56;;;;;;;7.50;5.28;;;;;;;17.39;60.51;98113.31;5054216;28;20064;-75
2023/05/16 08:46:22;;;;;;;7.00;5.93;;;;;;;17.42;60.20;98109.03;5053780;28;20135;-74
2023/05/16 08:48:52;;;;;;;5.68;5.07;;;;;;;17.41;59.07;98102.69;5053942;28;20021;-76
2023/05/16 08:51:18;;;;;;;6.15;5.53;;;;;;;17.40;59.71;98108.56;5054125;28;20025;-75
2023/05/16 08:53:47;;;;;;;6.32;5.40;;;;;;;17.42;59.61;98100.72;5054029;28;20107;-75
2023/05/16 08:56:16;;;;;;;7.45;5.70;;;;;;;17.47;59.61;98102.44;5053553;28;20036;-75
2023/05/16 08:58:42;;;;;;;6.07;5.50;;;;;;;17.50;59.80;98099.75;5053995;28;20031;-74
2023/05/16 09:01:08;;;;;;;5.80;5.18;;;;;;;17.58;59.25;98102.75;5053787;28;20116;-75
2023/05/16 09:03:37;;;;;;;6.88;5.47;;;;;;;17.67;59.81;98098.66;5053736;28;20021;-73
2023/05/16 09:06:06;;;;;;;6.20;5.60;;;;;;;17.80;59.92;98101.41;5053922;28;20474;-74
2023/05/16 09:08:32;;;;;;;5.57;5.07;;;;;;;17.92;60.13;98090.25;5053933;28;20083;-74
2023/05/16 09:10:57;;;;;;;5.97;5.25;;;;;;;18.05;60.09;98087.44;5053830;28;20036;-75
2023/05/16 09:13:24;;;;;;;6.65;5.45;;;;;;;18.15;59.64;98090.47;5053889;28;20032;-73
2023/05/16 09:16:16;;;;;;;6.30;4.95;;;;;;;18.26;59.63;98092.72;5053682;28;20029;-74
2023/05/16 09:18:43;;;;;;;6.30;5.00;;;;;;;18.39;59.45;98091.50;5049423;28;20090;-74
2023/05/16 09:21:10;;;;;;;7.03;5.47;;;;;;;18.48;59.27;98090.53;5053175;28;20029;-74
2023/05/16 09:23:36;;;;;;;6.95;5.95;;;;;;;18.56;59.05;98097.84;5053399;28;20389;-74
2023/05/16 09:26:02;;;;;;;6.97;5.85;;;;;;;18.62;58.65;98104.75;5053163;28;20108;-74
2023/05/16 09:28:29;;;;;;;6.40;5.35;;;;;;;18.63;58.27;98103.59;5052388;28;20021;-74
2023/05/16 09:30:57;;;;;;;5.78;5.18;;;;;;;18.70;58.50;98105.75;5053309;28;20037;-74
2023/05/16 09:33:25;;;;;;;10.18;5.82;;;;;;;18.77;58.16;98108.69;5053412;28;20047;-75
2023/05/16 09:35:58;;;;;;;6.40;5.03;;;;;;;18.83;58.24;98118.34;5053183;28;20108;-74
2023/05/16 09:38:26;;;;;;;6.32;5.50;;;;;;;18.89;58.32;98113.34;5051680;28;20072;-75
2023/05/16 09:40:52;;;;;;;8.07;6.20;;;;;;;18.98;57.67;98122.31;5051648;28;20079;-75
2023/05/16 09:43:22;;;;;;;7.55;5.95;;;;;;;19.03;57.67;98113.69;5053253;28;20048;-74
2023/05/16 09:45:48;;;;;;;7.03;6.35;;;;;;;19.12;57.45;98115.47;5053402;28;20435;-73
2023/05/16 09:48:14;;;;;;;7.82;5.55;;;;;;;19.19;57.28;98107.31;5052557;28;20108;-74
2023/05/16 09:50:45;;;;;;;7.40;5.75;;;;;;;19.25;57.13;98100.31;5052814;28;20385;-74
2023/05/16 09:53:12;;;;;;;6.70;5.30;;;;;;;19.32;57.27;98094.91;5053091;28;20033;-74
2023/05/16 09:55:38;;;;;;;5.80;5.13;;;;;;;19.38;56.84;98102.94;5052652;28;20033;-74
2023/05/16 09:58:03;;;;;;;7.28;5.00;;;;;;;19.42;56.41;98101.84;5051123;28;20051;-75
2023/05/16 10:00:31;;;;;;;6.97;5.43;;;;;;;19.47;56.41;98101.56;5050992;28;20132;-75
2023/05/16 10:02:57;;;;;;;5.70;4.90;;;;;;;19.50;56.02;98100.03;5051284;28;20044;-74
2023/05/16 10:05:26;;;;;;;7.57;5.97;;;;;;;19.53;55.32;98099.31;5051887;28;20075;-74
2023/05/16 10:07:56;;;;;;;6.45;5.80;;;;;;;19.52;54.81;98099.69;5051835;28;20036;-75
2023/05/16 10:10:22;;;;;;;6.38;5.57;;;;;;;19.49;54.59;98102.03;5051980;28;20033;-75
2023/05/16 10:12:50;;;;;;;6.85;5.63;;;;;;;19.45;54.41;98103.91;5052482;28;20025;-73
2023/05/16 10:15:16;;;;;;;6.35;5.53;;;;;;;19.42;53.17;98104.63;5052260;28;20489;-74
2023/05/16 10:17:44;;;;;;;7.60;5.50;;;;;;;19.42;53.94;98101.84;5052832;28;20029;-76
2023/05/16 10:20:11;;;;;;;6.47;5.75;;;;;;;19.44;52.74;98109.81;5050446;28;20025;-75
2023/05/16 10:22:42;;;;;;;7.53;5.40;;;;;;;19.45;54.01;98103.91;5052678;28;20120;-74
2023/05/16 10:25:16;;;;;;;5.72;5.05;;;;;;;19.52;53.60;98102.47;5052709;28;20021;-74
2023/05/16 10:27:43;;;;;;;5.93;4.97;;;;;;;19.61;53.77;98111.38;5052792;28;20025;-75
2023/05/16 10:30:09;;;;;;;5.82;5.13;;;;;;;19.68;53.61;98105.97;5052634;28;20025;-75
2023/05/16 10:32:36;;;;;;;5.35;4.82;;;;;;;19.79;53.80;98111.75;5052500;28;20511;-74
2023/05/16 10:35:03;;;;;;;6.32;4.55;;;;;;;19.86;53.78;98108.31;5052398;28;20037;-74
2023/05/16 10:37:31;;;;;;;6.57;5.28;;;;;;;19.92;53.71;98106.88;5052449;28;20548;-74
2023/05/16 10:39:58;;;;;;;4.97;4.47;;;;;;;19.99;53.33;98106.19;5052125;28;20053;-74
2023/05/16 10:42:23;;;;;;;5.13;4.60;;;;;;;20.05;53.13;98111.09;5052399;28;20496;-74
2023/05/16 10:44:53;;;;;;;6.68;4.75;;;;;;;20.08;52.97;98106.78;5051682;28;20033;-74
2023/05/16 10:47:19;;;;;;;6.75;4.35;;;;;;;20.15;52.87;98095.78;5050585;28;20473;-76
2023/05/16 10:49:45;;;;;;;5.97;4.57;;;;;;;20.22;52.74;98090.31;5035816;28;20033;-74
2023/05/16 10:52:12;;;;;;;6.15;4.75;;;;;;;20.31;52.25;98104.03;5047106;28;20029;-74
2023/05/16 10:54:40;;;;;;;6.38;5.18;;;;;;;20.35;52.65;98093.75;5053617;28;20096;-75
2023/05/16 10:57:18;;;;;;;5.93;4.97;;;;;;;20.40;52.63;98095.41;5044194;28;20043;-75
2023/05/16 10:59:46;;;;;;;7.60;4.70;;;;;;;20.47;52.51;98095.53;5062836;28;20025;-74
2023/05/16 11:02:23;;;;;;;5.78;4.10;;;;;;;20.46;51.32;98090.34;5058927;28;20041;-70
2023/05/16 11:04:51;;;;;;;4.15;3.75;;;;;;;20.45;51.74;98095.13;5056230;28;20489;-72
2023/05/16 11:07:18;;;;;;;4.82;4.43;;;;;;;20.48;51.52;98087.97;5037597;28;20025;-73
2023/05/16 11:09:44;;;;;;;7.18;4.30;;;;;;;20.49;51.48;98086.81;5048829;28;20021;-71
2023/05/16 11:12:10;;;;;;;6.28;4.40;;;;;;;20.52;51.40;98081.31;5049523;28;20025;-70
2023/05/16 11:14:42;;;;;;;7.28;5.38;;;;;;;20.55;51.25;98070.59;5056833;28;20023;-71
2023/05/16 11:17:12;;;;;;;7.80;6.97;;;;;;;20.53;50.70;98074.56;5052657;28;20527;-73
2023/05/16 11:19:44;;;;;;;6.93;4.90;;;;;;;20.51;51.34;98076.91;5049918;28;20032;-72
2023/05/16 11:22:20;;;;;;;5.78;4.72;;;;;;;20.53;51.13;98077.34;5052293;28;20061;-70
2023/05/16 11:25:05;;;;;;;7.75;5.00;;;;;;;20.58;51.42;98073.44;5053072;28;20032;-71
2023/05/16 11:27:42;;;;;;;6.97;5.05;;;;;;;20.57;50.75;98071.03;5050094;28;20035;-71
2023/05/16 11:30:20;;;;;;;7.50;4.85;;;;;;;20.56;50.99;98069.44;5055971;28;20021;-72